Time;durP1;ratioP1;P1;durP2;ratioP2;P2;SDS_P1;SDS_P2;PMS_P1;PMS_P2;Temp;Humidity;BMP_temperature;BMP_pressure;BME280_temperature;BME280_humidity;BME280_pressure;Samples;Min_cycle;Max_cycle;Signal;HPM_P1;HPM_P2
2022/11/04 00:01:43;;;;;;;;;;;11.20;99.90;;;;;;5076740;28;20356;-82
2022/11/04 00:04:09;;;;;;;;;;;11.20;99.90;;;;;;5082682;22;20037;-83
2022/11/04 00:06:35;;;;;;;;;;;11.10;99.90;;;;;;5023860;28;19953;-83
2022/11/04 00:09:02;;;;;;;;;;;11.10;99.90;;;;;;5040446;28;19920;-83
2022/11/04 00:14:12;;;;;;;;;;;11.20;99.90;;;;;;5040280;28;19915;-84
2022/11/04 00:19:22;;;;;;;;;;;11.30;99.90;;;;;;5040406;28;20434;-83
2022/11/04 00:30:02;;;;;;;;;;;11.30;99.90;;;;;;5041690;28;19916;-83
2022/11/04 00:35:12;;;;;;;;;;;11.50;99.90;;;;;;5039798;28;20455;-85
2022/11/04 00:37:38;;;;;;;;;;;11.50;99.90;;;;;;5039204;28;19913;-82
2022/11/04 00:40:05;;;;;;;;;;;11.60;99.90;;;;;;5039680;28;19916;-84
2022/11/04 00:42:30;;;;;;;;;;;11.60;99.90;;;;;;5021283;28;19909;-84
2022/11/04 00:44:56;;;;;;;;;;;11.60;99.90;;;;;;5020739;28;20284;-85
2022/11/04 00:47:21;;;;;;;;;;;11.60;99.90;;;;;;5019423;28;19916;-84
2022/11/04 00:49:46;;;;;;;;;;;11.60;99.90;;;;;;5020530;28;20000;-84
2022/11/04 00:52:12;;;;;;;;;;;11.60;99.90;;;;;;5038604;28;19913;-84
2022/11/04 00:54:37;;;;;;;;;;;11.60;99.90;;;;;;5020057;28;19915;-84
2022/11/04 00:57:03;;;;;;;;;;;11.60;99.90;;;;;;5038360;28;19959;-83
2022/11/04 00:59:28;;;;;;;;;;;11.60;99.90;;;;;;5038036;28;19952;-83
2022/11/04 01:01:54;;;;;;;;;;;11.60;99.90;;;;;;5019958;28;19909;-84
2022/11/04 01:04:19;;;;;;;;;;;11.60;99.90;;;;;;5020017;28;19917;-83
2022/11/04 01:06:45;;;;;;;;;;;11.60;99.90;;;;;;5037497;28;19916;-84
2022/11/04 01:09:10;;;;;;;;;;;11.70;99.90;;;;;;5020022;28;19909;-84
2022/11/04 01:11:36;;;;;;;;;;;11.70;99.90;;;;;;5020037;28;20304;-85
2022/11/04 01:14:01;;;;;;;;;;;11.80;99.90;;;;;;5019361;28;20380;-84
2022/11/04 01:16:27;;;;;;;;;;;11.80;99.90;;;;;;5019117;28;20016;-84
2022/11/04 01:18:52;;;;;;;;;;;11.80;99.90;;;;;;5018031;28;19944;-83
2022/11/04 01:21:18;;;;;;;;;;;11.70;99.90;;;;;;5018901;28;19940;-83
2022/11/04 01:23:44;;;;;;;;;;;11.80;99.90;;;;;;5036905;28;20373;-85
2022/11/04 01:26:11;;;;;;;;;;;11.60;99.90;;;;;;5037776;28;19916;-84
2022/11/04 01:28:37;;;;;;;;;;;11.60;99.90;;;;;;5019721;28;20368;-84
2022/11/04 01:31:06;;;;;;;;;;;11.60;99.90;;;;;;5036901;28;19913;-83
2022/11/04 01:33:35;;;;;;;;;;;11.50;99.90;;;;;;5018673;28;19909;-84
2022/11/04 01:36:00;;;;;;;;;;;11.50;99.90;;;;;;5037340;28;19910;-84
2022/11/04 01:38:26;;;;;;;;;;;11.50;99.90;;;;;;5036743;28;19913;-85
2022/11/04 01:40:51;;;;;;;;;;;11.40;99.90;;;;;;5019690;28;19912;-84
2022/11/04 01:43:18;;;;;;;;;;;11.30;99.90;;;;;;5018134;28;20369;-84
2022/11/04 01:45:45;;;;;;;;;;;11.30;99.90;;;;;;5018533;28;20327;-84
2022/11/04 01:48:16;;;;;;;;;;;11.20;99.90;;;;;;5019462;28;20445;-82
2022/11/04 01:50:41;;;;;;;;;;;11.10;99.90;;;;;;5018474;28;20328;-84
2022/11/04 01:53:14;;;;;;;;;;;11.10;99.90;;;;;;5036834;28;19910;-83
2022/11/04 01:55:42;;;;;;;;;;;11.10;99.90;;;;;;5018327;28;19959;-84
2022/11/04 01:58:12;;;;;;;;;;;11.00;99.90;;;;;;5037379;28;20291;-85
2022/11/04 02:00:39;;;;;;;;;;;11.00;99.90;;;;;;5018828;28;19972;-84
2022/11/04 02:03:09;;;;;;;;;;;10.90;99.90;;;;;;5037107;28;20005;-83
2022/11/04 02:05:35;;;;;;;;;;;10.80;99.90;;;;;;5017246;28;19955;-82
2022/11/04 02:08:02;;;;;;;;;;;10.80;99.90;;;;;;5017784;28;19916;-82
2022/11/04 02:10:29;;;;;;;;;;;10.70;99.90;;;;;;5018564;28;19910;-84
2022/11/04 02:12:55;;;;;;;;;;;10.80;99.90;;;;;;5017872;28;19909;-83
2022/11/04 02:15:36;;;;;;;;;;;10.80;99.90;;;;;;5017613;28;19909;-82
2022/11/04 02:18:01;;;;;;;;;;;10.80;99.90;;;;;;5016959;28;19913;-83
2022/11/04 02:20:33;;;;;;;;;;;10.70;99.90;;;;;;5017578;28;19973;-85
2022/11/04 02:22:58;;;;;;;;;;;10.70;99.90;;;;;;5035281;28;20375;-84
2022/11/04 02:25:24;;;;;;;;;;;10.70;99.90;;;;;;5018440;28;19934;-83
2022/11/04 02:28:15;;;;;;;;;;;10.70;99.90;;;;;;5035613;28;19909;-82
2022/11/04 02:30:45;;;;;;;;;;;10.60;99.90;;;;;;4997779;28;19916;-83
2022/11/04 02:33:35;;;;;;;;;;;10.60;99.90;;;;;;5017243;28;19913;-83
2022/11/04 02:36:09;;;;;;;;;;;10.50;99.90;;;;;;5017697;28;19910;-82
2022/11/04 02:38:34;;;;;;;;;;;10.50;99.90;;;;;;5017493;28;19964;-83
2022/11/04 02:41:00;;;;;;;;;;;10.50;99.90;;;;;;5037655;28;19909;-82
2022/11/04 02:43:46;;;;;;;;;;;10.40;99.90;;;;;;5018176;28;19909;-83
2022/11/04 02:46:12;;;;;;;;;;;10.40;99.90;;;;;;5022038;28;19945;-82
2022/11/04 02:48:39;;;;;;;;;;;10.40;99.90;;;;;;5039770;28;19909;-85
2022/11/04 02:51:17;;;;;;;;;;;10.40;99.90;;;;;;5040090;28;19909;-84
2022/11/04 02:53:51;;;;;;;;;;;10.30;99.90;;;;;;5039534;28;20388;-82
2022/11/04 02:56:18;;;;;;;;;;;10.30;99.90;;;;;;5021694;28;19913;-85
2022/11/04 02:58:47;;;;;;;;;;;10.30;99.90;;;;;;5021810;28;20391;-84
2022/11/04 03:01:15;;;;;;;;;;;10.30;99.90;;;;;;5040175;28;20296;-83
2022/11/04 03:03:44;;;;;;;;;;;10.30;99.90;;;;;;5039876;28;19975;-84
2022/11/04 03:06:13;;;;;;;;;;;10.20;99.90;;;;;;5039400;28;20382;-83
2022/11/04 03:08:40;;;;;;;;;;;10.30;99.90;;;;;;5039573;28;19909;-84
2022/11/04 03:11:10;;;;;;;;;;;10.30;99.90;;;;;;5022056;28;19944;-84
2022/11/04 03:13:51;;;;;;;;;;;10.30;99.90;;;;;;5021403;28;20414;-83
2022/11/04 03:16:18;;;;;;;;;;;10.40;99.90;;;;;;5021505;28;19910;-84
2022/11/04 03:18:47;;;;;;;;;;;10.50;99.90;;;;;;5038368;28;19958;-84
2022/11/04 03:21:13;;;;;;;;;;;10.50;99.90;;;;;;5020517;28;19913;-85
2022/11/04 03:23:39;;;;;;;;;;;10.50;99.90;;;;;;5019999;28;19916;-82
2022/11/04 03:26:10;;;;;;;;;;;10.60;99.90;;;;;;5037912;28;19909;-84
2022/11/04 03:28:40;;;;;;;;;;;10.50;99.90;;;;;;5037484;28;19933;-84
2022/11/04 03:31:09;;;;;;;;;;;10.50;99.90;;;;;;5019509;28;20012;-82
2022/11/04 03:33:44;;;;;;;;;;;10.50;99.90;;;;;;5020075;28;19916;-84
2022/11/04 03:36:09;;;;;;;;;;;10.40;99.90;;;;;;5036881;28;19909;-85
2022/11/04 03:38:35;;;;;;;;;;;10.40;99.90;;;;;;5038285;28;19920;-85
2022/11/04 03:41:02;;;;;;;;;;;10.30;99.90;;;;;;5037480;28;20023;-84
2022/11/04 03:43:27;;;;;;;;;;;10.30;99.90;;;;;;5019219;28;19981;-83
2022/11/04 03:45:54;;;;;;;;;;;10.20;99.90;;;;;;5037626;28;19940;-82
2022/11/04 03:48:19;;;;;;;;;;;10.30;99.90;;;;;;5037441;28;20374;-82
2022/11/04 03:50:48;;;;;;;;;;;10.20;99.90;;;;;;5037869;28;19915;-83
2022/11/04 03:53:21;;;;;;;;;;;10.10;99.90;;;;;;5019132;28;19916;-83
2022/11/04 03:55:49;;;;;;;;;;;10.10;99.90;;;;;;5019303;28;19932;-82
2022/11/04 03:58:15;;;;;;;;;;;10.00;99.90;;;;;;5019639;28;19913;-83
2022/11/04 04:00:45;;;;;;;;;;;10.00;99.90;;;;;;5019642;28;20012;-83
2022/11/04 04:03:10;;;;;;;;;;;10.00;99.90;;;;;;5019808;28;19920;-83
2022/11/04 04:05:42;;;;;;;;;;;10.00;99.90;;;;;;5037323;28;19909;-82
2022/11/04 04:08:18;;;;;;;;;;;9.90;99.90;;;;;;5019104;28;20284;-84
2022/11/04 04:10:44;;;;;;;;;;;9.90;99.90;;;;;;5019042;28;19909;-83
2022/11/04 04:13:18;;;;;;;;;;;9.90;99.90;;;;;;5037699;28;19909;-84
2022/11/04 04:16:13;;;;;;;;;;;9.80;99.90;;;;;;5019199;28;19913;-82
2022/11/04 04:18:38;;;;;;;;;;;9.80;99.90;;;;;;5016079;28;20307;-83
2022/11/04 04:21:05;;;;;;;;;;;9.70;99.90;;;;;;5019214;28;19995;-83
2022/11/04 04:29:05;;;;;;;;;;;9.60;99.90;;;;;;5037610;28;19940;-83
2022/11/04 04:31:51;;;;;;;;;;;9.60;99.90;;;;;;5019334;28;19909;-83
2022/11/04 04:34:21;;;;;;;;;;;9.60;99.90;;;;;;5019056;28;19913;-83
2022/11/04 04:36:52;;;;;;;;;;;9.50;99.90;;;;;;5018656;28;19909;-83
2022/11/04 04:45:03;;;;;;;;;;;9.40;99.90;;;;;;5037136;28;19916;-83
2022/11/04 04:47:45;;;;;;;;;;;9.40;99.90;;;;;;5018822;28;20011;-84
2022/11/04 04:50:12;;;;;;;;;;;9.40;99.90;;;;;;5037026;28;19915;-84
2022/11/04 04:52:40;;;;;;;;;;;9.40;99.90;;;;;;5037902;28;19909;-85
2022/11/04 04:55:06;;;;;;;;;;;9.30;99.90;;;;;;5019758;28;19959;-84
2022/11/04 04:57:32;;;;;;;;;;;9.30;99.90;;;;;;5019940;28;20280;-84
2022/11/04 04:59:57;;;;;;;;;;;9.30;99.90;;;;;;5019404;28;19920;-84
2022/11/04 05:02:22;;;;;;;;;;;9.20;99.90;;;;;;5019402;28;19909;-82
2022/11/04 05:04:48;;;;;;;;;;;9.20;99.90;;;;;;5019617;28;19971;-85
2022/11/04 05:07:13;;;;;;;;;;;9.20;99.90;;;;;;5018079;28;20387;-84
2022/11/04 05:09:39;;;;;;;;;;;9.10;99.90;;;;;;5019260;28;19963;-83
2022/11/04 05:12:04;;;;;;;;;;;9.10;99.90;;;;;;5018576;28;19910;-84
2022/11/04 05:14:30;;;;;;;;;;;9.10;99.90;;;;;;5020789;28;19916;-83
2022/11/04 05:16:56;;;;;;;;;;;9.00;99.90;;;;;;5037461;28;19920;-81
2022/11/04 05:19:21;;;;;;;;;;;9.00;99.90;;;;;;5019225;28;19936;-83
2022/11/04 05:21:47;;;;;;;;;;;8.90;99.90;;;;;;5018534;28;20304;-84
2022/11/04 05:24:12;;;;;;;;;;;8.80;99.90;;;;;;5037646;28;19913;-84
2022/11/04 05:26:38;;;;;;;;;;;8.80;99.90;;;;;;5019889;28;19913;-84
2022/11/04 05:29:03;;;;;;;;;;;8.80;99.90;;;;;;5018905;28;19909;-84
2022/11/04 05:31:29;;;;;;;;;;;8.70;99.90;;;;;;5018772;28;19917;-84
2022/11/04 05:33:55;;;;;;;;;;;8.70;99.90;;;;;;5036573;28;20365;-82
2022/11/04 05:36:20;;;;;;;;;;;8.70;99.90;;;;;;5021684;28;19976;-84
2022/11/04 05:38:49;;;;;;;;;;;8.60;99.90;;;;;;5048868;28;19917;-85
2022/11/04 05:41:24;;;;;;;;;;;8.60;99.90;;;;;;5042555;28;20283;-83
2022/11/04 05:43:53;;;;;;;;;;;8.50;99.90;;;;;;5042476;28;19913;-85
2022/11/04 05:46:19;;;;;;;;;;;8.50;99.90;;;;;;5042430;28;19976;-83
2022/11/04 05:48:44;;;;;;;;;;;8.50;99.90;;;;;;5041919;28;19948;-83
2022/11/04 05:51:13;;;;;;;;;;;8.40;99.90;;;;;;5041376;28;19909;-84
2022/11/04 05:53:39;;;;;;;;;;;8.40;99.90;;;;;;5041482;28;19956;-83
2022/11/04 05:56:05;;;;;;;;;;;8.40;99.90;;;;;;5022442;28;19913;-84
2022/11/04 05:58:30;;;;;;;;;;;8.40;99.90;;;;;;5023877;28;19967;-84
2022/11/04 06:01:10;;;;;;;;;;;8.40;99.90;;;;;;5022939;28;19909;-85
2022/11/04 06:03:35;;;;;;;;;;;8.40;99.90;;;;;;5098600;22;19932;-83
2022/11/04 06:06:01;;;;;;;;;;;8.40;99.90;;;;;;5057871;28;19990;-84
2022/11/04 06:08:26;;;;;;;;;;;8.50;99.90;;;;;;5076185;28;19908;-84
2022/11/04 06:10:51;;;;;;;;;;;8.50;99.90;;;;;;5058009;28;20383;-84
2022/11/04 06:13:17;;;;;;;;;;;8.60;99.90;;;;;;5075034;28;20287;-82
2022/11/04 06:15:42;;;;;;;;;;;8.60;99.90;;;;;;5057416;28;19913;-82
2022/11/04 06:18:08;;;;;;;;;;;8.60;99.90;;;;;;5074933;28;19912;-82
2022/11/04 06:20:33;;;;;;;;;;;8.60;99.90;;;;;;5057676;28;19916;-82
2022/11/04 06:22:59;;;;;;;;;;;8.70;99.90;;;;;;5076259;28;19948;-83
2022/11/04 06:25:24;;;;;;;;;;;8.70;99.90;;;;;;5056902;28;20398;-82
2022/11/04 06:27:50;;;;;;;;;;;8.70;99.90;;;;;;5075685;28;19909;-83
2022/11/04 06:30:15;;;;;;;;;;;8.70;99.90;;;;;;5076858;28;19927;-82
2022/11/04 06:32:40;;;;;;;;;;;8.70;99.90;;;;;;5076516;28;20307;-83
2022/11/04 06:35:07;;;;;;;;;;;8.70;99.90;;;;;;5076183;28;19908;-83
2022/11/04 06:37:33;;;;;;;;;;;8.70;99.90;;;;;;5079170;28;19927;-84
2022/11/04 06:39:59;;;;;;;;;;;8.70;99.90;;;;;;5059194;28;19948;-83
2022/11/04 06:42:25;;;;;;;;;;;8.80;99.90;;;;;;5057135;28;20329;-82
2022/11/04 06:44:51;;;;;;;;;;;8.80;99.90;;;;;;5056719;28;19909;-83
2022/11/04 06:47:17;;;;;;;;;;;8.80;99.90;;;;;;5075134;28;20287;-82
2022/11/04 06:49:42;;;;;;;;;;;8.90;99.90;;;;;;5075918;28;19918;-82
2022/11/04 06:52:08;;;;;;;;;;;9.00;99.90;;;;;;5075593;28;19908;-84
2022/11/04 06:54:34;;;;;;;;;;;9.00;99.90;;;;;;5076518;28;20003;-83
2022/11/04 06:56:59;;;;;;;;;;;9.00;99.90;;;;;;5058539;28;19958;-83
2022/11/04 06:59:25;;;;;;;;;;;9.00;99.90;;;;;;5057782;28;19959;-84
2022/11/04 07:01:53;;;;;;;;;;;9.00;99.90;;;;;;5079032;28;20315;-84
2022/11/04 07:04:18;;;;;;;;;;;9.00;99.90;;;;;;5075733;28;19922;-83
2022/11/04 07:06:44;;;;;;;;;;;9.10;99.90;;;;;;5056880;28;20269;-82
2022/11/04 07:09:10;;;;;;;;;;;9.20;99.90;;;;;;5075439;28;20469;-83
2022/11/04 07:11:36;;;;;;;;;;;9.30;99.90;;;;;;5075352;28;19909;-82
2022/11/04 07:14:01;;;;;;;;;;;9.40;99.90;;;;;;5074643;28;20295;-82
2022/11/04 07:16:27;;;;;;;;;;;9.50;99.90;;;;;;5074804;28;19908;-83
2022/11/04 07:18:53;;;;;;;;;;;9.60;99.90;;;;;;5075232;28;20307;-83
2022/11/04 07:21:19;;;;;;;;;;;9.60;99.90;;;;;;5058218;28;19909;-83
2022/11/04 07:23:44;;;;;;;;;;;9.70;99.90;;;;;;5058544;28;19935;-84
2022/11/04 07:26:10;;;;;;;;;;;9.70;99.90;;;;;;5077031;28;19952;-84
2022/11/04 07:28:36;;;;;;;;;;;9.80;99.90;;;;;;5057550;28;19944;-84
2022/11/04 07:31:02;;;;;;;;;;;9.80;99.90;;;;;;5078720;28;19916;-83
2022/11/04 07:33:28;;;;;;;;;;;9.90;99.90;;;;;;5061510;28;19909;-84
2022/11/04 07:35:54;;;;;;;;;;;9.90;99.90;;;;;;5061791;28;20050;-84
2022/11/04 07:38:20;;;;;;;;;;;9.90;99.90;;;;;;5079628;28;19912;-83
2022/11/04 07:40:46;;;;;;;;;;;10.00;99.90;;;;;;5077664;28;20004;-82
2022/11/04 07:43:12;;;;;;;;;;;10.00;99.90;;;;;;5078553;28;19909;-83
2022/11/04 07:45:37;;;;;;;;;;;10.10;99.90;;;;;;5061374;28;19915;-84
2022/11/04 07:48:03;;;;;;;;;;;10.20;99.90;;;;;;5060037;28;19914;-83
2022/11/04 07:50:28;;;;;;;;;;;10.30;99.90;;;;;;5060080;28;19955;-82
2022/11/04 07:52:54;;;;;;;;;;;10.40;99.90;;;;;;5079453;28;20354;-83
2022/11/04 07:55:19;;;;;;;;;;;10.40;99.90;;;;;;5060031;28;19915;-82
2022/11/04 07:57:45;;;;;;;;;;;10.50;99.90;;;;;;5061540;28;19912;-84
2022/11/04 08:00:11;;;;;;;;;;;10.60;99.90;;;;;;5060345;28;19923;-83
2022/11/04 08:02:37;;;;;;;;;;;10.70;99.90;;;;;;5059486;28;19908;-84
2022/11/04 08:05:05;;;;;;;;;;;10.70;99.90;;;;;;5077586;28;20019;-83
2022/11/04 08:07:30;;;;;;;;;;;10.80;99.90;;;;;;5078884;28;19940;-84
2022/11/04 08:09:56;;;;;;;;;;;10.90;99.90;;;;;;5078266;28;19909;-84
2022/11/04 08:12:23;;;;;;;;;;;11.00;99.90;;;;;;5059727;28;19916;-84
2022/11/04 08:14:48;;;;;;;;;;;11.00;99.90;;;;;;5076384;28;20003;-83
2022/11/04 08:17:14;;;;;;;;;;;11.10;99.90;;;;;;5077075;28;19948;-83
2022/11/04 08:19:40;;;;;;;;;;;11.20;99.90;;;;;;5077022;28;19912;-82
2022/11/04 08:22:07;;;;;;;;;;;11.30;99.90;;;;;;5058265;28;20058;-82
2022/11/04 08:24:32;;;;;;;;;;;11.40;99.90;;;;;;5057924;28;19908;-83
2022/11/04 08:27:01;;;;;;;;;;;11.40;99.90;;;;;;5075202;28;19916;-83
2022/11/04 08:29:27;;;;;;;;;;;11.50;99.90;;;;;;5076238;28;19998;-85
2022/11/04 08:31:52;;;;;;;;;;;11.60;99.90;;;;;;5058154;28;19997;-85
2022/11/04 08:34:17;;;;;;;;;;;11.70;99.90;;;;;;5058037;28;19909;-83
2022/11/04 08:36:43;;;;;;;;;;;11.80;99.90;;;;;;5058067;28;20005;-83
2022/11/04 08:39:10;;;;;;;;;;;11.80;99.90;;;;;;5076440;28;19920;-84
2022/11/04 08:41:37;;;;;;;;;;;11.90;99.90;;;;;;5057579;28;19940;-83
2022/11/04 08:44:04;;;;;;;;;;;12.00;99.90;;;;;;5075932;28;19909;-84
2022/11/04 08:46:34;;;;;;;;;;;12.20;99.90;;;;;;5057447;28;19908;-82
2022/11/04 08:48:59;;;;;;;;;;;12.30;99.90;;;;;;5057826;28;19958;-83
2022/11/04 08:51:26;;;;;;;;;;;12.40;99.90;;;;;;5058076;28;19912;-83
2022/11/04 08:53:51;;;;;;;;;;;12.40;99.90;;;;;;5058524;28;19962;-82
2022/11/04 08:56:22;;;;;;;;;;;12.40;99.90;;;;;;5057807;28;19913;-83
2022/11/04 08:58:48;;;;;;;;;;;12.40;99.90;;;;;;5072587;28;19969;-84
2022/11/04 09:01:13;;;;;;;;;;;12.50;99.90;;;;;;5042068;28;20360;-86
2022/11/04 09:03:39;;;;;;;;;;;12.50;99.90;;;;;;5055259;28;19919;-87
2022/11/04 09:06:06;;;;;;;;;;;12.50;99.90;;;;;;5040811;28;19913;-87
2022/11/04 09:08:31;;;;;;;;;;;12.60;99.90;;;;;;5040806;28;19909;-86
2022/11/04 09:10:57;;;;;;;;;;;12.70;99.90;;;;;;5056971;28;19908;-87
2022/11/04 09:13:22;;;;;;;;;;;12.80;99.90;;;;;;5037800;28;19935;-86
2022/11/04 09:15:48;;;;;;;;;;;12.90;99.90;;;;;;5056368;28;19916;-85
2022/11/04 09:18:13;;;;;;;;;;;13.00;99.90;;;;;;5055708;28;19913;-88
2022/11/04 09:20:40;;;;;;;;;;;13.00;99.90;;;;;;5037633;28;19909;-86
2022/11/04 09:23:06;;;;;;;;;;;13.00;99.90;;;;;;5038532;28;19943;-87
2022/11/04 09:25:32;;;;;;;;;;;13.00;99.90;;;;;;5036806;28;19908;-85
2022/11/04 09:27:58;;;;;;;;;;;13.00;99.90;;;;;;5038497;28;19916;-85
2022/11/04 09:30:23;;;;;;;;;;;13.00;99.90;;;;;;5038821;28;20280;-86
2022/11/04 09:32:49;;;;;;;;;;;12.90;99.90;;;;;;5054156;28;19955;-86
2022/11/04 09:35:16;;;;;;;;;;;12.90;99.90;;;;;;5037275;28;19939;-85
2022/11/04 09:37:42;;;;;;;;;;;12.90;99.90;;;;;;5053978;28;20380;-86
2022/11/04 09:40:11;;;;;;;;;;;12.90;99.90;;;;;;5038716;28;19913;-85
2022/11/04 09:42:36;;;;;;;;;;;12.80;99.90;;;;;;5035706;28;19909;-86
2022/11/04 09:45:10;;;;;;;;;;;12.90;99.90;;;;;;5035650;28;19909;-86
2022/11/04 09:47:37;;;;;;;;;;;13.00;99.90;;;;;;5053952;28;20366;-85
2022/11/04 09:50:05;;;;;;;;;;;13.10;99.90;;;;;;5036682;28;19951;-84
2022/11/04 09:52:36;;;;;;;;;;;13.30;99.90;;;;;;5054341;28;19909;-86
2022/11/04 09:55:08;;;;;;;;;;;13.40;99.90;;;;;;5035501;28;19956;-85
2022/11/04 09:57:33;;;;;;;;;;;13.60;99.90;;;;;;5053343;28;20371;-86
2022/11/04 09:59:59;;;;;;;;;;;13.90;99.90;;;;;;5035807;28;19920;-86
2022/11/04 10:02:30;;;;;;;;;;;14.00;99.90;;;;;;5036010;28;19920;-86
2022/11/04 10:05:04;;;;;;;;;;;14.10;99.90;;;;;;5035680;28;19917;-86
2022/11/04 10:07:33;;;;;;;;;;;14.30;99.90;;;;;;5036033;28;19912;-86
2022/11/04 10:10:01;;;;;;;;;;;14.40;99.90;;;;;;5054150;28;19915;-84
2022/11/04 10:12:38;;;;;;;;;;;14.60;99.90;;;;;;5054600;28;19927;-84
2022/11/04 10:15:09;;;;;;;;;;;14.80;99.90;;;;;;5037354;28;19909;-86
2022/11/04 10:17:54;;;;;;;;;;;15.10;99.90;;;;;;5039518;28;19913;-85
2022/11/04 10:20:38;;;;;;;;;;;15.30;99.90;;;;;;5044395;28;19912;-85
2022/11/04 10:23:18;;;;;;;;;;;15.50;99.90;;;;;;5044963;28;19948;-86
2022/11/04 10:25:48;;;;;;;;;;;15.70;99.90;;;;;;5057401;28;20283;-86
2022/11/04 10:28:17;;;;;;;;;;;16.00;99.90;;;;;;5035908;28;19909;-85
2022/11/04 10:30:45;;;;;;;;;;;16.10;99.90;;;;;;5038055;28;19915;-86
2022/11/04 10:33:20;;;;;;;;;;;16.20;99.90;;;;;;5054397;28;19908;-84
2022/11/04 10:35:50;;;;;;;;;;;16.50;99.90;;;;;;5035862;28;20364;-86
2022/11/04 10:38:18;;;;;;;;;;;16.80;99.90;;;;;;5035780;28;19964;-86
2022/11/04 10:40:52;;;;;;;;;;;16.80;99.90;;;;;;5052593;28;19908;-85
2022/11/04 10:43:21;;;;;;;;;;;16.90;99.90;;;;;;5036304;28;19909;-84
2022/11/04 10:46:05;;;;;;;;;;;17.00;99.90;;;;;;5035001;28;20401;-87
2022/11/04 10:48:35;;;;;;;;;;;17.00;99.90;;;;;;5035258;28;19909;-85
2022/11/04 10:51:01;;;;;;;;;;;17.00;99.90;;;;;;5053442;28;19908;-84
2022/11/04 10:53:29;;;;;;;;;;;17.10;99.90;;;;;;5035515;28;19909;-86
2022/11/04 10:56:27;;;;;;;;;;;17.00;99.90;;;;;;5036459;28;19908;-85
2022/11/04 10:58:54;;;;;;;;;;;16.90;99.90;;;;;;4994144;28;19979;-86
2022/11/04 11:01:27;;;;;;;;;;;16.90;99.90;;;;;;5056318;28;20389;-84
2022/11/04 11:03:53;;;;;;;;;;;16.80;99.90;;;;;;5036102;28;19917;-86
2022/11/04 11:06:24;;;;;;;;;;;16.70;99.90;;;;;;5039011;28;19915;-86
2022/11/04 11:08:51;;;;;;;;;;;16.70;99.90;;;;;;5042240;28;19909;-85
2022/11/04 11:11:33;;;;;;;;;;;16.60;99.90;;;;;;5039937;28;19935;-85
2022/11/04 11:13:58;;;;;;;;;;;16.30;99.90;;;;;;5039344;28;19909;-84
2022/11/04 11:16:25;;;;;;;;;;;16.00;99.90;;;;;;5038430;28;19951;-85
2022/11/04 11:19:11;;;;;;;;;;;15.80;99.90;;;;;;5039525;28;20376;-85
2022/11/04 11:21:44;;;;;;;;;;;15.80;99.90;;;;;;5039860;28;19909;-83
2022/11/04 11:24:15;;;;;;;;;;;16.00;99.90;;;;;;5041580;28;19909;-87
2022/11/04 11:26:46;;;;;;;;;;;16.00;99.90;;;;;;5056620;28;19916;-85
2022/11/04 11:29:12;;;;;;;;;;;16.20;99.90;;;;;;5039558;28;19909;-85
2022/11/04 11:31:39;;;;;;;;;;;16.20;99.90;;;;;;5039539;28;19959;-85
2022/11/04 11:34:06;;;;;;;;;;;16.10;99.90;;;;;;5040844;28;19949;-85
2022/11/04 11:36:36;;;;;;;;;;;16.10;99.90;;;;;;5040429;28;19909;-86
2022/11/04 11:39:11;;;;;;;;;;;16.10;99.90;;;;;;5039137;28;19938;-85
2022/11/04 11:41:56;;;;;;;;;;;16.00;99.90;;;;;;5038898;28;20364;-85
2022/11/04 11:44:25;;;;;;;;;;;16.30;99.90;;;;;;5038435;28;19908;-85
2022/11/04 11:46:56;;;;;;;;;;;17.00;99.90;;;;;;5039095;28;19912;-85
2022/11/04 11:49:27;;;;;;;;;;;17.60;99.90;;;;;;5039131;28;20363;-85
2022/11/04 11:51:53;;;;;;;;;;;17.60;99.90;;;;;;5038454;28;19909;-85
2022/11/04 11:54:22;;;;;;;;;;;17.20;99.90;;;;;;5039060;28;19909;-84
2022/11/04 11:56:54;;;;;;;;;;;17.00;99.90;;;;;;5039612;28;19948;-86
2022/11/04 11:59:19;;;;;;;;;;;17.20;99.90;;;;;;5052535;28;20005;-85
2022/11/04 12:02:18;;;;;;;;;;;17.40;99.90;;;;;;5059679;28;19908;-86
2022/11/04 12:04:43;;;;;;;;;;;17.70;99.90;;;;;;5035300;22;19900;-81
2022/11/04 12:07:31;;;;;;;;;;;17.80;99.90;;;;;;5075263;28;20477;-79
2022/11/04 12:10:01;;;;;;;;;;;17.90;99.90;;;;;;5075229;28;19931;-79
2022/11/04 12:12:42;;;;;;;;;;;17.70;99.90;;;;;;5075048;28;19970;-79
2022/11/04 12:15:22;;;;;;;;;;;17.40;99.90;;;;;;5074791;28;19931;-79
2022/11/04 12:18:06;;;;;;;;;;;17.10;99.90;;;;;;5074904;28;20124;-79
2022/11/04 12:20:32;;;;;;;;;;;17.10;99.90;;;;;;5075259;28;19939;-78
2022/11/04 12:23:04;;;;;;;;;;;16.70;99.90;;;;;;5075084;28;19909;-78
2022/11/04 12:25:43;;;;;;;;;;;16.30;99.90;;;;;;5069428;28;19933;-79
2022/11/04 12:28:09;;;;;;;;;;;16.30;99.90;;;;;;5063129;28;19955;-79
2022/11/04 12:30:51;;;;;;;;;;;16.30;99.90;;;;;;5054414;28;20265;-79
2022/11/04 12:33:24;;;;;;;;;;;16.50;99.90;;;;;;5055143;28;19920;-79
2022/11/04 12:36:08;;;;;;;;;;;16.60;99.90;;;;;;5054136;28;19909;-79
2022/11/04 12:38:33;;;;;;;;;;;16.60;99.90;;;;;;5054585;28;20011;-79
2022/11/04 12:41:07;;;;;;;;;;;16.80;99.90;;;;;;5054217;28;19944;-80
2022/11/04 12:43:52;;;;;;;;;;;17.00;99.90;;;;;;5053974;28;19924;-79
2022/11/04 12:46:20;;;;;;;;;;;16.90;99.90;;;;;;5036022;28;19966;-79
2022/11/04 12:48:54;;;;;;;;;;;16.90;99.90;;;;;;5054349;28;20788;-79
2022/11/04 12:51:29;;;;;;;;;;;17.00;99.90;;;;;;5054232;28;19909;-79
2022/11/04 12:53:57;;;;;;;;;;;17.20;99.90;;;;;;5054074;28;19980;-79
2022/11/04 12:56:28;;;;;;;;;;;17.30;99.90;;;;;;5053307;28;20283;-79
2022/11/04 12:59:07;;;;;;;;;;;17.50;99.90;;;;;;5054078;28;19920;-79
2022/11/04 13:01:36;;;;;;;;;;;17.40;99.90;;;;;;5053870;28;19913;-79
2022/11/04 13:04:12;;;;;;;;;;;17.30;99.90;;;;;;5053969;28;19948;-79
2022/11/04 13:06:44;;;;;;;;;;;17.40;99.90;;;;;;5053322;28;19928;-79
2022/11/04 13:09:09;;;;;;;;;;;17.50;99.90;;;;;;5053532;28;19986;-80
2022/11/04 13:11:39;;;;;;;;;;;17.20;99.90;;;;;;5053985;28;19975;-79
2022/11/04 13:14:19;;;;;;;;;;;17.00;99.90;;;;;;5053824;28;19913;-80
2022/11/04 13:16:46;;;;;;;;;;;17.00;99.90;;;;;;5053408;28;19909;-80
2022/11/04 13:19:17;;;;;;;;;;;16.90;99.90;;;;;;5053994;28;20284;-79
2022/11/04 13:21:43;;;;;;;;;;;16.90;99.90;;;;;;5053480;28;19909;-83
2022/11/04 13:24:31;;;;;;;;;;;17.10;99.90;;;;;;5053358;28;20011;-78
2022/11/04 13:26:59;;;;;;;;;;;17.30;99.90;;;;;;5052847;28;19916;-79
2022/11/04 13:29:25;;;;;;;;;;;17.30;99.90;;;;;;5054040;28;19916;-77
2022/11/04 13:31:56;;;;;;;;;;;17.30;99.90;;;;;;5028343;28;20354;-80
2022/11/04 13:34:25;;;;;;;;;;;17.00;99.90;;;;;;5060061;28;19913;-79
2022/11/04 13:36:56;;;;;;;;;;;16.90;99.90;;;;;;5054449;28;19920;-80
2022/11/04 13:39:22;;;;;;;;;;;16.90;99.90;;;;;;5053468;28;19963;-81
2022/11/04 13:42:06;;;;;;;;;;;16.80;99.90;;;;;;5053856;28;19909;-80
2022/11/04 13:44:36;;;;;;;;;;;16.70;99.90;;;;;;5053191;28;19916;-80
2022/11/04 13:47:04;;;;;;;;;;;16.40;99.90;;;;;;5052943;28;20283;-81
2022/11/04 13:49:35;;;;;;;;;;;16.30;99.90;;;;;;5053355;28;19995;-79
2022/11/04 13:52:06;;;;;;;;;;;16.00;99.90;;;;;;5035092;28;19909;-81
2022/11/04 13:54:33;;;;;;;;;;;15.80;99.90;;;;;;5053015;28;19912;-80
2022/11/04 13:57:02;;;;;;;;;;;15.70;99.90;;;;;;5052731;28;19954;-80
2022/11/04 13:59:29;;;;;;;;;;;15.50;99.90;;;;;;5052974;28;19923;-80
2022/11/04 14:02:12;;;;;;;;;;;15.20;99.90;;;;;;5053017;28;19955;-80
2022/11/04 14:04:38;;;;;;;;;;;15.00;99.90;;;;;;5052823;28;19909;-80
2022/11/04 14:07:07;;;;;;;;;;;15.00;99.90;;;;;;5052864;28;19916;-80
2022/11/04 14:09:41;;;;;;;;;;;14.90;99.90;;;;;;5053003;28;19915;-80
2022/11/04 14:12:10;;;;;;;;;;;14.80;99.90;;;;;;5034992;28;19952;-80
2022/11/04 14:14:49;;;;;;;;;;;14.80;99.90;;;;;;5034873;28;19909;-80
2022/11/04 14:17:32;;;;;;;;;;;14.70;99.90;;;;;;5052834;28;20008;-81
2022/11/04 14:19:58;;;;;;;;;;;14.60;99.90;;;;;;5052771;28;19963;-80
2022/11/04 14:22:28;;;;;;;;;;;14.40;99.90;;;;;;5052698;28;19909;-80
2022/11/04 14:24:57;;;;;;;;;;;14.40;99.90;;;;;;5052645;28;19963;-81
2022/11/04 14:27:24;;;;;;;;;;;14.40;99.90;;;;;;5052632;28;19909;-80
2022/11/04 14:29:51;;;;;;;;;;;14.20;99.90;;;;;;5052798;28;19916;-80
2022/11/04 14:32:20;;;;;;;;;;;14.20;99.90;;;;;;5052600;28;19909;-80
2022/11/04 14:34:45;;;;;;;;;;;14.20;99.90;;;;;;5052257;28;20364;-79
2022/11/04 14:37:13;;;;;;;;;;;14.00;99.90;;;;;;5052418;28;19916;-80
2022/11/04 14:39:39;;;;;;;;;;;14.00;99.90;;;;;;5051688;28;19913;-81
2022/11/04 14:42:07;;;;;;;;;;;14.00;99.90;;;;;;5052372;28;19909;-80
2022/11/04 14:44:33;;;;;;;;;;;13.90;99.90;;;;;;5034476;28;19916;-80
2022/11/04 14:47:21;;;;;;;;;;;13.80;99.90;;;;;;5052278;28;19913;-80
2022/11/04 14:49:48;;;;;;;;;;;13.80;99.90;;;;;;5041516;28;19943;-80
2022/11/04 14:52:18;;;;;;;;;;;13.70;99.90;;;;;;5052576;28;19909;-80
2022/11/04 14:54:43;;;;;;;;;;;13.70;99.90;;;;;;5052148;28;19915;-80
2022/11/04 14:57:19;;;;;;;;;;;13.70;99.90;;;;;;5052102;28;19908;-80
2022/11/04 14:59:46;;;;;;;;;;;13.60;99.90;;;;;;5052092;28;20019;-80